sensor_id;sensor_type;location;lat;lon;timestamp;P1;durP1;ratioP1;P2;durP2;ratioP2
57313;SDS011;53202;50.976;18.216;2022-12-13T00:01:26;18.20;;;14.50;;
57313;SDS011;53202;50.976;18.216;2022-12-13T00:11:12;26.30;;;9.30;;
57313;SDS011;53202;50.976;18.216;2022-12-13T00:20:58;26.80;;;15.30;;
57313;SDS011;53202;50.976;18.216;2022-12-13T00:30:42;22.00;;;15.60;;
57313;SDS011;53202;50.976;18.216;2022-12-13T00:40:30;19.00;;;15.90;;
57313;SDS011;53202;50.976;18.216;2022-12-13T00:50:13;21.70;;;13.40;;
57313;SDS011;53202;50.976;18.216;2022-12-13T01:07:15;28.30;;;19.30;;
57313;SDS011;53202;50.976;18.216;2022-12-13T01:16:59;25.60;;;15.00;;
57313;SDS011;53202;50.976;18.216;2022-12-13T01:26:49;24.70;;;16.30;;
57313;SDS011;53202;50.976;18.216;2022-12-13T01:29:16;28.50;;;23.40;;
57313;SDS011;53202;50.976;18.216;2022-12-13T01:39:01;31.30;;;20.40;;
57313;SDS011;53202;50.976;18.216;2022-12-13T01:48:53;20.30;;;18.10;;
57313;SDS011;53202;50.976;18.216;2022-12-13T01:58:46;37.50;;;21.20;;
57313;SDS011;53202;50.976;18.216;2022-12-13T02:08:31;17.50;;;6.50;;
57313;SDS011;53202;50.976;18.216;2022-12-13T02:29:08;20.80;;;12.10;;
57313;SDS011;53202;50.976;18.216;2022-12-13T02:39:25;31.10;;;21.70;;
57313;SDS011;53202;50.976;18.216;2022-12-13T02:49:24;31.80;;;20.30;;
57313;SDS011;53202;50.976;18.216;2022-12-13T02:59:21;20.30;;;12.80;;
57313;SDS011;53202;50.976;18.216;2022-12-13T03:09:58;19.70;;;8.20;;
57313;SDS011;53202;50.976;18.216;2022-12-13T03:20:28;14.20;;;9.70;;
57313;SDS011;53202;50.976;18.216;2022-12-13T03:30:13;25.70;;;20.60;;
57313;SDS011;53202;50.976;18.216;2022-12-13T03:39:57;7.80;;;5.70;;
57313;SDS011;53202;50.976;18.216;2022-12-13T03:49:42;23.80;;;17.70;;
57313;SDS011;53202;50.976;18.216;2022-12-13T04:06:43;13.20;;;9.10;;
57313;SDS011;53202;50.976;18.216;2022-12-13T04:16:41;14.60;;;13.10;;
57313;SDS011;53202;50.976;18.216;2022-12-13T04:26:24;1.10;;;1.00;;
57313;SDS011;53202;50.976;18.216;2022-12-13T04:36:07;36.50;;;22.90;;
57313;SDS011;53202;50.976;18.216;2022-12-13T04:53:16;24.70;;;19.50;;
57313;SDS011;53202;50.976;18.216;2022-12-13T05:02:59;16.80;;;15.00;;
57313;SDS011;53202;50.976;18.216;2022-12-13T05:12:43;15.00;;;12.60;;
57313;SDS011;53202;50.976;18.216;2022-12-13T05:22:26;13.50;;;12.20;;
57313;SDS011;53202;50.976;18.216;2022-12-13T05:32:10;22.70;;;17.10;;
57313;SDS011;53202;50.976;18.216;2022-12-13T05:41:54;14.50;;;12.30;;
57313;SDS011;53202;50.976;18.216;2022-12-13T05:51:38;12.40;;;7.00;;
57313;SDS011;53202;50.976;18.216;2022-12-13T06:01:21;4.00;;;1.90;;
57313;SDS011;53202;50.976;18.216;2022-12-13T06:18:26;22.20;;;10.00;;
57313;SDS011;53202;50.976;18.216;2022-12-13T06:28:14;26.80;;;6.40;;
57313;SDS011;53202;50.976;18.216;2022-12-13T06:37:57;33.10;;;19.10;;
57313;SDS011;53202;50.976;18.216;2022-12-13T06:47:41;37.70;;;14.90;;
57313;SDS011;53202;50.976;18.216;2022-12-13T06:57:27;22.50;;;11.50;;
57313;SDS011;53202;50.976;18.216;2022-12-13T07:07:10;264.30;;;66.00;;
57313;SDS011;53202;50.976;18.216;2022-12-13T07:16:54;57.70;;;29.80;;
57313;SDS011;53202;50.976;18.216;2022-12-13T07:26:37;22.40;;;15.40;;
57313;SDS011;53202;50.976;18.216;2022-12-13T07:36:21;140.40;;;41.70;;
57313;SDS011;53202;50.976;18.216;2022-12-13T07:46:06;53.20;;;12.50;;
57313;SDS011;53202;50.976;18.216;2022-12-13T07:55:51;30.30;;;16.60;;
57313;SDS011;53202;50.976;18.216;2022-12-13T08:05:35;35.90;;;20.00;;
57313;SDS011;53202;50.976;18.216;2022-12-13T08:15:22;23.10;;;14.40;;
57313;SDS011;53202;50.976;18.216;2022-12-13T08:25:07;8.40;;;6.60;;
57313;SDS011;53202;50.976;18.216;2022-12-13T08:42:10;34.90;;;21.20;;
57313;SDS011;53202;50.976;18.216;2022-12-13T08:51:57;23.20;;;19.30;;
57313;SDS011;53202;50.976;18.216;2022-12-13T09:01:43;17.20;;;7.50;;
57313;SDS011;53202;50.976;18.216;2022-12-13T09:11:27;36.00;;;11.80;;
57313;SDS011;53202;50.976;18.216;2022-12-13T09:21:14;52.40;;;30.70;;
57313;SDS011;53202;50.976;18.216;2022-12-13T09:38:17;21.60;;;14.10;;
57313;SDS011;53202;50.976;18.216;2022-12-13T09:48:09;31.40;;;15.60;;
57313;SDS011;53202;50.976;18.216;2022-12-13T09:57:54;36.60;;;23.50;;
57313;SDS011;53202;50.976;18.216;2022-12-13T10:07:58;42.60;;;18.30;;
57313;SDS011;53202;50.976;18.216;2022-12-13T10:17:48;34.80;;;21.40;;
57313;SDS011;53202;50.976;18.216;2022-12-13T10:27:42;19.40;;;15.50;;
57313;SDS011;53202;50.976;18.216;2022-12-13T10:37:53;18.80;;;13.30;;
57313;SDS011;53202;50.976;18.216;2022-12-13T11:05:32;33.40;;;22.50;;
57313;SDS011;53202;50.976;18.216;2022-12-13T11:23:18;28.60;;;17.20;;
57313;SDS011;53202;50.976;18.216;2022-12-13T11:33:26;32.10;;;20.60;;
57313;SDS011;53202;50.976;18.216;2022-12-13T11:43:49;23.00;;;17.60;;
57313;SDS011;53202;50.976;18.216;2022-12-13T11:53:51;31.20;;;21.40;;
57313;SDS011;53202;50.976;18.216;2022-12-13T12:14:35;21.70;;;13.70;;
57313;SDS011;53202;50.976;18.216;2022-12-13T12:24:50;49.30;;;27.20;;
57313;SDS011;53202;50.976;18.216;2022-12-13T12:43:15;34.00;;;22.40;;
57313;SDS011;53202;50.976;18.216;2022-12-13T12:53:46;34.30;;;20.70;;
57313;SDS011;53202;50.976;18.216;2022-12-13T13:04:04;65.00;;;31.60;;
57313;SDS011;53202;50.976;18.216;2022-12-13T13:24:39;135.20;;;57.80;;
57313;SDS011;53202;50.976;18.216;2022-12-13T13:34:48;24.90;;;16.50;;
57313;SDS011;53202;50.976;18.216;2022-12-13T13:45:26;40.70;;;23.80;;
57313;SDS011;53202;50.976;18.216;2022-12-13T14:14:31;66.60;;;33.80;;
57313;SDS011;53202;50.976;18.216;2022-12-13T14:24:53;34.20;;;15.90;;
57313;SDS011;53202;50.976;18.216;2022-12-13T14:35:03;62.70;;;18.10;;
57313;SDS011;53202;50.976;18.216;2022-12-13T14:44:49;200.40;;;65.40;;
57313;SDS011;53202;50.976;18.216;2022-12-13T14:54:43;146.10;;;58.40;;
57313;SDS011;53202;50.976;18.216;2022-12-13T15:04:38;117.20;;;29.90;;
57313;SDS011;53202;50.976;18.216;2022-12-13T15:14:33;119.20;;;37.40;;
57313;SDS011;53202;50.976;18.216;2022-12-13T15:24:22;154.10;;;50.20;;
57313;SDS011;53202;50.976;18.216;2022-12-13T15:34:20;85.70;;;47.70;;
57313;SDS011;53202;50.976;18.216;2022-12-13T15:51:56;42.80;;;24.30;;
57313;SDS011;53202;50.976;18.216;2022-12-13T16:02:14;84.80;;;34.60;;
57313;SDS011;53202;50.976;18.216;2022-12-13T16:12:13;101.40;;;41.00;;
57313;SDS011;53202;50.976;18.216;2022-12-13T16:22:12;291.60;;;92.60;;
57313;SDS011;53202;50.976;18.216;2022-12-13T16:31:55;156.60;;;70.40;;
57313;SDS011;53202;50.976;18.216;2022-12-13T16:41:40;177.70;;;58.40;;
57313;SDS011;53202;50.976;18.216;2022-12-13T16:51:30;335.90;;;142.60;;
57313;SDS011;53202;50.976;18.216;2022-12-13T17:01:14;280.20;;;105.40;;
57313;SDS011;53202;50.976;18.216;2022-12-13T17:18:19;113.30;;;60.80;;
57313;SDS011;53202;50.976;18.216;2022-12-13T17:28:04;142.20;;;39.00;;
57313;SDS011;53202;50.976;18.216;2022-12-13T17:37:52;70.30;;;33.30;;
57313;SDS011;53202;50.976;18.216;2022-12-13T17:47:38;165.00;;;77.90;;
57313;SDS011;53202;50.976;18.216;2022-12-13T17:57:22;228.20;;;63.10;;
57313;SDS011;53202;50.976;18.216;2022-12-13T18:07:09;254.70;;;114.60;;
57313;SDS011;53202;50.976;18.216;2022-12-13T18:16:52;315.20;;;112.80;;
57313;SDS011;53202;50.976;18.216;2022-12-13T18:26:36;245.10;;;74.30;;
57313;SDS011;53202;50.976;18.216;2022-12-13T18:36:21;130.60;;;49.20;;
57313;SDS011;53202;50.976;18.216;2022-12-13T18:53:26;253.70;;;96.30;;
57313;SDS011;53202;50.976;18.216;2022-12-13T19:03:16;252.60;;;86.80;;
57313;SDS011;53202;50.976;18.216;2022-12-13T19:13:00;129.00;;;63.80;;
57313;SDS011;53202;50.976;18.216;2022-12-13T19:22:44;127.80;;;64.10;;
57313;SDS011;53202;50.976;18.216;2022-12-13T19:32:29;188.10;;;76.70;;
57313;SDS011;53202;50.976;18.216;2022-12-13T19:42:13;291.40;;;64.30;;
57313;SDS011;53202;50.976;18.216;2022-12-13T19:59:17;56.80;;;37.70;;
57313;SDS011;53202;50.976;18.216;2022-12-13T20:01:44;282.70;;;97.70;;
57313;SDS011;53202;50.976;18.216;2022-12-13T20:11:28;147.20;;;76.10;;
57313;SDS011;53202;50.976;18.216;2022-12-13T20:21:13;125.10;;;71.10;;
57313;SDS011;53202;50.976;18.216;2022-12-13T20:31:04;100.80;;;62.50;;
57313;SDS011;53202;50.976;18.216;2022-12-13T20:41:02;129.90;;;47.50;;
57313;SDS011;53202;50.976;18.216;2022-12-13T20:51:02;155.20;;;48.30;;
57313;SDS011;53202;50.976;18.216;2022-12-13T21:00:48;63.40;;;30.00;;
57313;SDS011;53202;50.976;18.216;2022-12-13T21:10:57;118.60;;;48.20;;
57313;SDS011;53202;50.976;18.216;2022-12-13T21:20:41;72.30;;;42.30;;
57313;SDS011;53202;50.976;18.216;2022-12-13T21:30:26;117.50;;;44.30;;
57313;SDS011;53202;50.976;18.216;2022-12-13T21:40:09;63.50;;;30.20;;
57313;SDS011;53202;50.976;18.216;2022-12-13T21:49:52;75.80;;;29.30;;
57313;SDS011;53202;50.976;18.216;2022-12-13T21:59:49;94.80;;;38.60;;
57313;SDS011;53202;50.976;18.216;2022-12-13T22:09:38;115.90;;;40.10;;
57313;SDS011;53202;50.976;18.216;2022-12-13T22:19:24;88.00;;;39.10;;
57313;SDS011;53202;50.976;18.216;2022-12-13T22:29:09;129.40;;;31.30;;
57313;SDS011;53202;50.976;18.216;2022-12-13T22:38:53;81.70;;;23.60;;
57313;SDS011;53202;50.976;18.216;2022-12-13T22:48:37;155.20;;;54.70;;
57313;SDS011;53202;50.976;18.216;2022-12-13T22:58:28;27.40;;;10.10;;
57313;SDS011;53202;50.976;18.216;2022-12-13T23:08:11;37.90;;;17.80;;
57313;SDS011;53202;50.976;18.216;2022-12-13T23:18:05;45.40;;;24.40;;
57313;SDS011;53202;50.976;18.216;2022-12-13T23:27:50;67.50;;;32.80;;
57313;SDS011;53202;50.976;18.216;2022-12-13T23:37:34;68.40;;;22.70;;
57313;SDS011;53202;50.976;18.216;2022-12-13T23:47:19;17.40;;;12.40;;
57313;SDS011;53202;50.976;18.216;2022-12-13T23:57:04;60.40;;;27.60;;
